sensor_id;sensor_type;location;lat;lon;timestamp;temperature;humidity
24618;DHT22;12762;51.730;5.356;2023-12-20T00:02:22;7.50;97.20
24618;DHT22;12762;51.730;5.356;2023-12-20T00:04:52;7.40;97.20
24618;DHT22;12762;51.730;5.356;2023-12-20T00:07:19;7.40;97.20
24618;DHT22;12762;51.730;5.356;2023-12-20T00:09:46;7.40;97.20
24618;DHT22;12762;51.730;5.356;2023-12-20T00:12:15;7.40;97.20
24618;DHT22;12762;51.730;5.356;2023-12-20T00:14:42;7.40;97.20
24618;DHT22;12762;51.730;5.356;2023-12-20T00:17:09;7.40;97.20
24618;DHT22;12762;51.730;5.356;2023-12-20T00:19:35;7.40;97.20
24618;DHT22;12762;51.730;5.356;2023-12-20T00:22:03;7.40;97.20
24618;DHT22;12762;51.730;5.356;2023-12-20T00:24:29;7.40;97.10
24618;DHT22;12762;51.730;5.356;2023-12-20T00:26:56;7.40;97.10
24618;DHT22;12762;51.730;5.356;2023-12-20T00:29:23;7.40;97.00
24618;DHT22;12762;51.730;5.356;2023-12-20T00:31:50;7.40;96.90
24618;DHT22;12762;51.730;5.356;2023-12-20T00:34:17;7.40;96.90
24618;DHT22;12762;51.730;5.356;2023-12-20T00:36:43;7.30;96.80
24618;DHT22;12762;51.730;5.356;2023-12-20T00:39:10;7.30;96.80
24618;DHT22;12762;51.730;5.356;2023-12-20T00:41:37;7.30;96.80
24618;DHT22;12762;51.730;5.356;2023-12-20T00:44:10;7.30;96.80
24618;DHT22;12762;51.730;5.356;2023-12-20T00:46:36;7.30;96.80
24618;DHT22;12762;51.730;5.356;2023-12-20T00:49:07;7.30;96.80
24618;DHT22;12762;51.730;5.356;2023-12-20T00:51:36;7.30;96.90
24618;DHT22;12762;51.730;5.356;2023-12-20T00:54:03;7.30;96.90
24618;DHT22;12762;51.730;5.356;2023-12-20T00:56:30;7.30;96.80
24618;DHT22;12762;51.730;5.356;2023-12-20T00:58:56;7.30;96.80
24618;DHT22;12762;51.730;5.356;2023-12-20T01:01:23;7.30;96.80
24618;DHT22;12762;51.730;5.356;2023-12-20T01:03:50;7.30;96.70
24618;DHT22;12762;51.730;5.356;2023-12-20T01:06:18;7.30;97.00
24618;DHT22;12762;51.730;5.356;2023-12-20T01:08:45;7.20;96.60
24618;DHT22;12762;51.730;5.356;2023-12-20T01:11:11;7.20;96.60
24618;DHT22;12762;51.730;5.356;2023-12-20T01:13:38;7.20;96.60
24618;DHT22;12762;51.730;5.356;2023-12-20T01:16:05;7.20;96.60
24618;DHT22;12762;51.730;5.356;2023-12-20T01:18:32;7.20;96.60
24618;DHT22;12762;51.730;5.356;2023-12-20T01:21:02;7.20;96.60
24618;DHT22;12762;51.730;5.356;2023-12-20T01:23:30;7.20;96.70
24618;DHT22;12762;51.730;5.356;2023-12-20T01:26:00;7.20;96.60
24618;DHT22;12762;51.730;5.356;2023-12-20T01:28:27;7.20;96.60
24618;DHT22;12762;51.730;5.356;2023-12-20T01:30:54;7.20;96.60
24618;DHT22;12762;51.730;5.356;2023-12-20T01:33:24;7.20;96.50
24618;DHT22;12762;51.730;5.356;2023-12-20T01:35:50;7.20;96.50
24618;DHT22;12762;51.730;5.356;2023-12-20T01:38:17;7.20;96.50
24618;DHT22;12762;51.730;5.356;2023-12-20T01:40:47;7.20;96.50
24618;DHT22;12762;51.730;5.356;2023-12-20T01:43:14;7.20;96.40
24618;DHT22;12762;51.730;5.356;2023-12-20T01:45:41;7.20;96.40
24618;DHT22;12762;51.730;5.356;2023-12-20T01:48:12;7.10;96.30
24618;DHT22;12762;51.730;5.356;2023-12-20T01:50:39;7.10;96.40
24618;DHT22;12762;51.730;5.356;2023-12-20T01:53:07;7.10;96.40
24618;DHT22;12762;51.730;5.356;2023-12-20T01:55:39;7.10;96.40
24618;DHT22;12762;51.730;5.356;2023-12-20T01:58:07;7.10;96.50
24618;DHT22;12762;51.730;5.356;2023-12-20T02:00:38;7.10;96.50
24618;DHT22;12762;51.730;5.356;2023-12-20T02:03:05;7.10;96.40
24618;DHT22;12762;51.730;5.356;2023-12-20T02:05:32;7.00;96.40
24618;DHT22;12762;51.730;5.356;2023-12-20T02:08:00;7.10;96.40
24618;DHT22;12762;51.730;5.356;2023-12-20T02:10:27;7.00;96.40
24618;DHT22;12762;51.730;5.356;2023-12-20T02:12:54;7.00;96.40
24618;DHT22;12762;51.730;5.356;2023-12-20T02:15:21;7.00;96.40
24618;DHT22;12762;51.730;5.356;2023-12-20T02:17:48;7.00;96.40
24618;DHT22;12762;51.730;5.356;2023-12-20T02:20:15;6.90;96.30
24618;DHT22;12762;51.730;5.356;2023-12-20T02:22:42;6.90;96.30
24618;DHT22;12762;51.730;5.356;2023-12-20T02:25:09;6.90;96.40
24618;DHT22;12762;51.730;5.356;2023-12-20T02:27:36;6.90;96.40
24618;DHT22;12762;51.730;5.356;2023-12-20T02:30:03;6.90;96.40
24618;DHT22;12762;51.730;5.356;2023-12-20T02:32:30;6.90;96.40
24618;DHT22;12762;51.730;5.356;2023-12-20T02:35:11;6.90;96.40
24618;DHT22;12762;51.730;5.356;2023-12-20T02:37:38;6.80;96.40
24618;DHT22;12762;51.730;5.356;2023-12-20T02:40:05;6.80;96.30
24618;DHT22;12762;51.730;5.356;2023-12-20T02:42:32;6.80;96.30
24618;DHT22;12762;51.730;5.356;2023-12-20T02:44:59;6.80;96.40
24618;DHT22;12762;51.730;5.356;2023-12-20T02:47:25;6.80;96.40
24618;DHT22;12762;51.730;5.356;2023-12-20T02:49:52;6.80;96.40
24618;DHT22;12762;51.730;5.356;2023-12-20T02:52:20;6.80;96.40
24618;DHT22;12762;51.730;5.356;2023-12-20T02:54:47;6.80;96.40
24618;DHT22;12762;51.730;5.356;2023-12-20T02:57:14;6.80;96.40
24618;DHT22;12762;51.730;5.356;2023-12-20T02:59:41;6.80;96.40
24618;DHT22;12762;51.730;5.356;2023-12-20T03:02:08;6.80;96.80
24618;DHT22;12762;51.730;5.356;2023-12-20T03:04:34;6.80;96.40
24618;DHT22;12762;51.730;5.356;2023-12-20T03:07:01;6.80;96.40
24618;DHT22;12762;51.730;5.356;2023-12-20T03:09:28;6.80;96.40
24618;DHT22;12762;51.730;5.356;2023-12-20T03:12:04;6.80;96.40
24618;DHT22;12762;51.730;5.356;2023-12-20T03:14:34;6.80;96.40
24618;DHT22;12762;51.730;5.356;2023-12-20T03:17:01;6.80;96.40
24618;DHT22;12762;51.730;5.356;2023-12-20T03:19:28;6.80;96.40
24618;DHT22;12762;51.730;5.356;2023-12-20T03:21:56;6.80;96.40
24618;DHT22;12762;51.730;5.356;2023-12-20T03:24:23;6.70;96.30
24618;DHT22;12762;51.730;5.356;2023-12-20T03:26:49;6.70;96.30
24618;DHT22;12762;51.730;5.356;2023-12-20T03:29:16;6.70;96.30
24618;DHT22;12762;51.730;5.356;2023-12-20T03:31:43;6.70;96.40
24618;DHT22;12762;51.730;5.356;2023-12-20T03:34:10;6.70;96.40
24618;DHT22;12762;51.730;5.356;2023-12-20T03:36:37;6.70;96.50
24618;DHT22;12762;51.730;5.356;2023-12-20T03:39:04;6.80;96.50
24618;DHT22;12762;51.730;5.356;2023-12-20T03:41:31;6.80;96.50
24618;DHT22;12762;51.730;5.356;2023-12-20T03:43:58;6.80;96.50
24618;DHT22;12762;51.730;5.356;2023-12-20T03:46:25;6.90;96.50
24618;DHT22;12762;51.730;5.356;2023-12-20T03:48:52;6.90;96.50
24618;DHT22;12762;51.730;5.356;2023-12-20T03:51:19;6.90;96.50
24618;DHT22;12762;51.730;5.356;2023-12-20T03:53:45;6.90;96.50
24618;DHT22;12762;51.730;5.356;2023-12-20T03:56:12;7.00;96.50
24618;DHT22;12762;51.730;5.356;2023-12-20T03:58:39;7.00;96.40
24618;DHT22;12762;51.730;5.356;2023-12-20T04:01:09;7.00;96.40
24618;DHT22;12762;51.730;5.356;2023-12-20T04:03:39;7.00;96.40
24618;DHT22;12762;51.730;5.356;2023-12-20T04:06:07;7.00;96.40
24618;DHT22;12762;51.730;5.356;2023-12-20T04:08:36;7.00;96.40
24618;DHT22;12762;51.730;5.356;2023-12-20T04:11:03;7.00;96.50
24618;DHT22;12762;51.730;5.356;2023-12-20T04:13:29;7.00;96.40
24618;DHT22;12762;51.730;5.356;2023-12-20T04:15:56;7.10;96.50
24618;DHT22;12762;51.730;5.356;2023-12-20T04:18:23;7.10;96.40
24618;DHT22;12762;51.730;5.356;2023-12-20T04:20:50;7.10;96.40
24618;DHT22;12762;51.730;5.356;2023-12-20T04:23:20;7.10;96.40
24618;DHT22;12762;51.730;5.356;2023-12-20T04:25:47;7.10;96.40
24618;DHT22;12762;51.730;5.356;2023-12-20T04:28:14;7.20;96.50
24618;DHT22;12762;51.730;5.356;2023-12-20T04:30:42;7.10;96.40
24618;DHT22;12762;51.730;5.356;2023-12-20T04:33:09;7.20;96.50
24618;DHT22;12762;51.730;5.356;2023-12-20T04:35:35;7.20;96.50
24618;DHT22;12762;51.730;5.356;2023-12-20T04:38:02;7.20;96.40
24618;DHT22;12762;51.730;5.356;2023-12-20T04:40:32;7.30;96.40
24618;DHT22;12762;51.730;5.356;2023-12-20T04:42:58;7.30;96.40
24618;DHT22;12762;51.730;5.356;2023-12-20T04:45:25;7.30;96.40
24618;DHT22;12762;51.730;5.356;2023-12-20T04:47:55;7.40;96.60
24618;DHT22;12762;51.730;5.356;2023-12-20T04:50:22;7.40;96.40
24618;DHT22;12762;51.730;5.356;2023-12-20T04:52:49;7.50;96.40
24618;DHT22;12762;51.730;5.356;2023-12-20T04:55:16;7.50;96.40
24618;DHT22;12762;51.730;5.356;2023-12-20T04:57:43;7.50;96.30
24618;DHT22;12762;51.730;5.356;2023-12-20T05:00:10;7.60;96.30
24618;DHT22;12762;51.730;5.356;2023-12-20T05:02:38;7.60;96.30
24618;DHT22;12762;51.730;5.356;2023-12-20T05:05:05;7.60;96.30
24618;DHT22;12762;51.730;5.356;2023-12-20T05:07:32;7.60;96.20
24618;DHT22;12762;51.730;5.356;2023-12-20T05:09:59;7.70;96.20
24618;DHT22;12762;51.730;5.356;2023-12-20T05:12:26;7.70;96.20
24618;DHT22;12762;51.730;5.356;2023-12-20T05:14:53;7.70;96.10
24618;DHT22;12762;51.730;5.356;2023-12-20T05:17:22;7.70;96.10
24618;DHT22;12762;51.730;5.356;2023-12-20T05:19:52;7.70;96.10
24618;DHT22;12762;51.730;5.356;2023-12-20T05:22:22;7.80;96.10
24618;DHT22;12762;51.730;5.356;2023-12-20T05:24:49;7.80;96.00
24618;DHT22;12762;51.730;5.356;2023-12-20T05:27:16;7.80;96.00
24618;DHT22;12762;51.730;5.356;2023-12-20T05:29:42;7.80;95.90
24618;DHT22;12762;51.730;5.356;2023-12-20T05:32:10;7.80;95.90
24618;DHT22;12762;51.730;5.356;2023-12-20T05:34:37;7.80;95.80
24618;DHT22;12762;51.730;5.356;2023-12-20T05:37:04;7.70;95.80
24618;DHT22;12762;51.730;5.356;2023-12-20T05:39:30;7.70;95.70
24618;DHT22;12762;51.730;5.356;2023-12-20T05:41:57;7.70;95.70
24618;DHT22;12762;51.730;5.356;2023-12-20T05:44:24;7.70;95.70
24618;DHT22;12762;51.730;5.356;2023-12-20T05:46:51;7.60;95.60
24618;DHT22;12762;51.730;5.356;2023-12-20T05:49:18;7.60;95.70
24618;DHT22;12762;51.730;5.356;2023-12-20T05:51:45;7.60;95.70
24618;DHT22;12762;51.730;5.356;2023-12-20T05:54:12;7.60;95.70
24618;DHT22;12762;51.730;5.356;2023-12-20T05:56:39;7.60;95.80
24618;DHT22;12762;51.730;5.356;2023-12-20T05:59:06;7.60;95.80
24618;DHT22;12762;51.730;5.356;2023-12-20T06:01:35;7.60;95.70
24618;DHT22;12762;51.730;5.356;2023-12-20T06:04:03;7.60;95.70
24618;DHT22;12762;51.730;5.356;2023-12-20T06:06:30;7.60;95.60
24618;DHT22;12762;51.730;5.356;2023-12-20T06:08:57;7.60;95.60
24618;DHT22;12762;51.730;5.356;2023-12-20T06:11:25;7.60;95.60
24618;DHT22;12762;51.730;5.356;2023-12-20T06:13:56;7.60;95.60
24618;DHT22;12762;51.730;5.356;2023-12-20T06:16:23;7.60;95.60
24618;DHT22;12762;51.730;5.356;2023-12-20T06:18:50;7.60;95.50
24618;DHT22;12762;51.730;5.356;2023-12-20T06:21:17;7.60;95.50
24618;DHT22;12762;51.730;5.356;2023-12-20T06:23:43;7.60;95.50
24618;DHT22;12762;51.730;5.356;2023-12-20T06:26:10;7.60;95.50
24618;DHT22;12762;51.730;5.356;2023-12-20T06:28:37;7.60;95.50
24618;DHT22;12762;51.730;5.356;2023-12-20T06:31:08;7.60;95.50
24618;DHT22;12762;51.730;5.356;2023-12-20T06:33:34;7.60;95.50
24618;DHT22;12762;51.730;5.356;2023-12-20T06:36:04;7.60;95.80
24618;DHT22;12762;51.730;5.356;2023-12-20T06:38:31;7.60;95.50
24618;DHT22;12762;51.730;5.356;2023-12-20T06:40:59;7.60;95.40
24618;DHT22;12762;51.730;5.356;2023-12-20T06:43:26;7.60;95.40
24618;DHT22;12762;51.730;5.356;2023-12-20T06:46:12;7.60;95.40
24618;DHT22;12762;51.730;5.356;2023-12-20T06:48:40;7.60;95.40
24618;DHT22;12762;51.730;5.356;2023-12-20T06:51:12;7.60;95.40
24618;DHT22;12762;51.730;5.356;2023-12-20T06:53:39;7.60;95.30
24618;DHT22;12762;51.730;5.356;2023-12-20T06:56:06;7.60;95.70
24618;DHT22;12762;51.730;5.356;2023-12-20T06:58:34;7.60;95.30
24618;DHT22;12762;51.730;5.356;2023-12-20T07:01:00;7.70;95.30
24618;DHT22;12762;51.730;5.356;2023-12-20T07:03:27;7.70;95.30
24618;DHT22;12762;51.730;5.356;2023-12-20T07:05:54;7.70;95.30
24618;DHT22;12762;51.730;5.356;2023-12-20T07:08:21;7.70;95.30
24618;DHT22;12762;51.730;5.356;2023-12-20T07:10:48;7.70;95.20
24618;DHT22;12762;51.730;5.356;2023-12-20T07:13:18;7.80;95.20
24618;DHT22;12762;51.730;5.356;2023-12-20T07:15:48;7.80;95.10
24618;DHT22;12762;51.730;5.356;2023-12-20T07:18:14;7.80;95.10
24618;DHT22;12762;51.730;5.356;2023-12-20T07:20:43;7.80;95.10
24618;DHT22;12762;51.730;5.356;2023-12-20T07:23:09;7.80;95.10
24618;DHT22;12762;51.730;5.356;2023-12-20T07:25:36;7.80;95.00
24618;DHT22;12762;51.730;5.356;2023-12-20T07:28:03;7.80;95.00
24618;DHT22;12762;51.730;5.356;2023-12-20T07:30:30;7.80;95.00
24618;DHT22;12762;51.730;5.356;2023-12-20T07:32:57;7.80;95.00
24618;DHT22;12762;51.730;5.356;2023-12-20T07:35:24;7.80;95.00
24618;DHT22;12762;51.730;5.356;2023-12-20T07:37:52;7.80;95.00
24618;DHT22;12762;51.730;5.356;2023-12-20T07:40:18;7.80;95.00
24618;DHT22;12762;51.730;5.356;2023-12-20T07:42:45;7.80;95.00
24618;DHT22;12762;51.730;5.356;2023-12-20T07:45:12;7.80;95.30
24618;DHT22;12762;51.730;5.356;2023-12-20T07:47:39;7.80;95.00
24618;DHT22;12762;51.730;5.356;2023-12-20T07:50:07;7.80;95.00
24618;DHT22;12762;51.730;5.356;2023-12-20T07:52:34;7.70;94.90
24618;DHT22;12762;51.730;5.356;2023-12-20T07:55:01;7.70;94.90
24618;DHT22;12762;51.730;5.356;2023-12-20T07:57:29;7.70;94.90
24618;DHT22;12762;51.730;5.356;2023-12-20T07:59:57;7.70;94.90
24618;DHT22;12762;51.730;5.356;2023-12-20T08:02:24;7.70;94.90
24618;DHT22;12762;51.730;5.356;2023-12-20T08:04:51;7.70;95.00
24618;DHT22;12762;51.730;5.356;2023-12-20T08:07:17;7.70;95.00
24618;DHT22;12762;51.730;5.356;2023-12-20T08:09:44;7.70;95.00
24618;DHT22;12762;51.730;5.356;2023-12-20T08:12:11;7.70;95.00
24618;DHT22;12762;51.730;5.356;2023-12-20T08:14:41;7.70;95.00
24618;DHT22;12762;51.730;5.356;2023-12-20T08:17:08;7.70;95.00
24618;DHT22;12762;51.730;5.356;2023-12-20T08:19:34;7.70;95.00
24618;DHT22;12762;51.730;5.356;2023-12-20T08:22:01;7.70;95.00
24618;DHT22;12762;51.730;5.356;2023-12-20T08:24:29;7.70;95.00
24618;DHT22;12762;51.730;5.356;2023-12-20T08:26:56;7.70;95.00
24618;DHT22;12762;51.730;5.356;2023-12-20T08:29:23;7.70;95.00
24618;DHT22;12762;51.730;5.356;2023-12-20T08:31:53;7.70;95.00
24618;DHT22;12762;51.730;5.356;2023-12-20T08:34:23;7.70;95.00
24618;DHT22;12762;51.730;5.356;2023-12-20T08:36:50;7.70;94.90
24618;DHT22;12762;51.730;5.356;2023-12-20T08:39:18;7.70;94.90
24618;DHT22;12762;51.730;5.356;2023-12-20T08:41:45;7.70;94.90
24618;DHT22;12762;51.730;5.356;2023-12-20T08:44:11;7.80;95.00
24618;DHT22;12762;51.730;5.356;2023-12-20T08:46:42;7.80;95.00
24618;DHT22;12762;51.730;5.356;2023-12-20T08:49:09;7.80;95.00
24618;DHT22;12762;51.730;5.356;2023-12-20T08:51:37;7.80;94.90
24618;DHT22;12762;51.730;5.356;2023-12-20T08:54:07;7.80;94.90
24618;DHT22;12762;51.730;5.356;2023-12-20T08:56:36;7.80;94.90
24618;DHT22;12762;51.730;5.356;2023-12-20T08:59:03;7.80;94.90
24618;DHT22;12762;51.730;5.356;2023-12-20T09:01:30;7.80;94.90
24618;DHT22;12762;51.730;5.356;2023-12-20T09:03:57;7.80;94.80
24618;DHT22;12762;51.730;5.356;2023-12-20T09:06:24;7.80;94.80
24618;DHT22;12762;51.730;5.356;2023-12-20T09:08:51;7.80;94.80
24618;DHT22;12762;51.730;5.356;2023-12-20T09:11:18;7.80;94.80
24618;DHT22;12762;51.730;5.356;2023-12-20T09:13:46;7.80;94.80
24618;DHT22;12762;51.730;5.356;2023-12-20T09:16:13;7.80;94.70
24618;DHT22;12762;51.730;5.356;2023-12-20T09:18:42;7.80;94.70
24618;DHT22;12762;51.730;5.356;2023-12-20T09:21:09;7.90;94.70
24618;DHT22;12762;51.730;5.356;2023-12-20T09:23:39;7.90;94.70
24618;DHT22;12762;51.730;5.356;2023-12-20T09:26:06;7.90;94.70
24618;DHT22;12762;51.730;5.356;2023-12-20T09:28:33;7.90;94.70
24618;DHT22;12762;51.730;5.356;2023-12-20T09:31:04;7.90;94.70
24618;DHT22;12762;51.730;5.356;2023-12-20T09:33:32;7.90;94.70
24618;DHT22;12762;51.730;5.356;2023-12-20T09:35:59;7.90;94.70
24618;DHT22;12762;51.730;5.356;2023-12-20T09:38:30;7.90;94.70
24618;DHT22;12762;51.730;5.356;2023-12-20T09:40:57;7.90;94.70
24618;DHT22;12762;51.730;5.356;2023-12-20T09:43:24;7.90;94.70
24618;DHT22;12762;51.730;5.356;2023-12-20T09:45:56;7.90;94.70
24618;DHT22;12762;51.730;5.356;2023-12-20T09:48:26;7.90;94.70
24618;DHT22;12762;51.730;5.356;2023-12-20T09:50:55;7.90;94.70
24618;DHT22;12762;51.730;5.356;2023-12-20T09:53:25;8.00;94.70
24618;DHT22;12762;51.730;5.356;2023-12-20T09:55:59;8.00;94.70
24618;DHT22;12762;51.730;5.356;2023-12-20T09:58:29;8.00;94.70
24618;DHT22;12762;51.730;5.356;2023-12-20T10:00:56;8.00;94.70
24618;DHT22;12762;51.730;5.356;2023-12-20T10:03:25;8.10;94.80
24618;DHT22;12762;51.730;5.356;2023-12-20T10:05:54;8.10;94.70
24618;DHT22;12762;51.730;5.356;2023-12-20T10:08:24;8.10;94.70
24618;DHT22;12762;51.730;5.356;2023-12-20T10:10:51;8.10;94.70
24618;DHT22;12762;51.730;5.356;2023-12-20T10:13:18;8.10;94.70
24618;DHT22;12762;51.730;5.356;2023-12-20T10:15:45;8.20;94.70
24618;DHT22;12762;51.730;5.356;2023-12-20T10:18:15;8.20;94.70
24618;DHT22;12762;51.730;5.356;2023-12-20T10:20:42;8.20;94.70
24618;DHT22;12762;51.730;5.356;2023-12-20T10:23:10;8.20;94.60
24618;DHT22;12762;51.730;5.356;2023-12-20T10:25:37;8.30;94.60
24618;DHT22;12762;51.730;5.356;2023-12-20T10:28:12;8.30;94.60
24618;DHT22;12762;51.730;5.356;2023-12-20T10:30:42;8.30;94.60
24618;DHT22;12762;51.730;5.356;2023-12-20T10:33:10;8.30;94.60
24618;DHT22;12762;51.730;5.356;2023-12-20T10:35:38;8.40;94.60
24618;DHT22;12762;51.730;5.356;2023-12-20T10:38:11;8.40;94.60
24618;DHT22;12762;51.730;5.356;2023-12-20T10:40:40;8.40;94.60
24618;DHT22;12762;51.730;5.356;2023-12-20T10:43:08;8.40;94.50
24618;DHT22;12762;51.730;5.356;2023-12-20T10:45:36;8.50;94.60
24618;DHT22;12762;51.730;5.356;2023-12-20T10:48:03;8.50;94.50
24618;DHT22;12762;51.730;5.356;2023-12-20T10:50:31;8.50;94.50
24618;DHT22;12762;51.730;5.356;2023-12-20T10:52:58;8.50;94.50
24618;DHT22;12762;51.730;5.356;2023-12-20T10:55:27;8.60;94.60
24618;DHT22;12762;51.730;5.356;2023-12-20T10:58:00;8.60;94.50
24618;DHT22;12762;51.730;5.356;2023-12-20T11:00:29;8.60;94.50
24618;DHT22;12762;51.730;5.356;2023-12-20T11:03:01;8.60;94.50
24618;DHT22;12762;51.730;5.356;2023-12-20T11:05:43;8.70;94.50
24618;DHT22;12762;51.730;5.356;2023-12-20T11:08:31;8.70;94.40
24618;DHT22;12762;51.730;5.356;2023-12-20T11:11:29;8.70;94.40
24618;DHT22;12762;51.730;5.356;2023-12-20T11:14:08;8.70;94.80
24618;DHT22;12762;51.730;5.356;2023-12-20T11:16:41;8.70;94.40
24618;DHT22;12762;51.730;5.356;2023-12-20T11:19:20;8.70;94.40
24618;DHT22;12762;51.730;5.356;2023-12-20T11:21:47;8.80;94.40
24618;DHT22;12762;51.730;5.356;2023-12-20T11:24:21;8.80;94.40
24618;DHT22;12762;51.730;5.356;2023-12-20T11:26:48;8.80;94.40
24618;DHT22;12762;51.730;5.356;2023-12-20T11:29:32;8.80;94.40
24618;DHT22;12762;51.730;5.356;2023-12-20T11:32:01;8.90;94.40
24618;DHT22;12762;51.730;5.356;2023-12-20T11:34:32;8.90;94.40
24618;DHT22;12762;51.730;5.356;2023-12-20T11:37:00;8.90;94.30
24618;DHT22;12762;51.730;5.356;2023-12-20T11:39:29;8.90;94.30
24618;DHT22;12762;51.730;5.356;2023-12-20T11:41:57;9.00;94.40
24618;DHT22;12762;51.730;5.356;2023-12-20T11:44:25;9.00;94.30
24618;DHT22;12762;51.730;5.356;2023-12-20T11:46:52;9.00;94.30
24618;DHT22;12762;51.730;5.356;2023-12-20T11:49:26;9.00;94.30
24618;DHT22;12762;51.730;5.356;2023-12-20T11:51:56;9.00;94.30
24618;DHT22;12762;51.730;5.356;2023-12-20T11:54:22;9.00;94.30
24618;DHT22;12762;51.730;5.356;2023-12-20T11:56:49;9.00;94.30
24618;DHT22;12762;51.730;5.356;2023-12-20T11:59:16;9.00;94.20
24618;DHT22;12762;51.730;5.356;2023-12-20T12:01:50;9.00;94.20
24618;DHT22;12762;51.730;5.356;2023-12-20T12:04:18;9.10;94.30
24618;DHT22;12762;51.730;5.356;2023-12-20T12:06:46;9.10;94.30
24618;DHT22;12762;51.730;5.356;2023-12-20T12:09:13;9.10;94.30
24618;DHT22;12762;51.730;5.356;2023-12-20T12:11:43;9.10;94.30
24618;DHT22;12762;51.730;5.356;2023-12-20T12:14:12;9.20;94.30
24618;DHT22;12762;51.730;5.356;2023-12-20T12:16:42;9.20;94.30
24618;DHT22;12762;51.730;5.356;2023-12-20T12:19:22;9.30;94.30
24618;DHT22;12762;51.730;5.356;2023-12-20T12:21:50;9.30;94.20
24618;DHT22;12762;51.730;5.356;2023-12-20T12:24:21;9.30;94.20
24618;DHT22;12762;51.730;5.356;2023-12-20T12:26:51;9.30;94.10
24618;DHT22;12762;51.730;5.356;2023-12-20T12:29:18;9.40;94.10
24618;DHT22;12762;51.730;5.356;2023-12-20T12:31:45;9.40;94.10
24618;DHT22;12762;51.730;5.356;2023-12-20T12:34:12;9.40;94.10
24618;DHT22;12762;51.730;5.356;2023-12-20T12:36:41;9.40;94.10
24618;DHT22;12762;51.730;5.356;2023-12-20T12:39:12;9.40;94.10
24618;DHT22;12762;51.730;5.356;2023-12-20T12:41:39;9.40;94.00
24618;DHT22;12762;51.730;5.356;2023-12-20T12:44:06;9.50;94.00
24618;DHT22;12762;51.730;5.356;2023-12-20T12:46:46;9.50;94.00
24618;DHT22;12762;51.730;5.356;2023-12-20T12:49:17;9.50;94.00
24618;DHT22;12762;51.730;5.356;2023-12-20T12:51:44;9.50;94.00
24618;DHT22;12762;51.730;5.356;2023-12-20T12:54:12;9.50;94.00
24618;DHT22;12762;51.730;5.356;2023-12-20T12:56:40;9.60;94.00
24618;DHT22;12762;51.730;5.356;2023-12-20T12:59:06;9.60;94.00
24618;DHT22;12762;51.730;5.356;2023-12-20T13:01:33;9.60;94.00
24618;DHT22;12762;51.730;5.356;2023-12-20T13:04:00;9.60;93.90
24618;DHT22;12762;51.730;5.356;2023-12-20T13:06:29;9.60;93.90
24618;DHT22;12762;51.730;5.356;2023-12-20T13:08:56;9.60;93.90
24618;DHT22;12762;51.730;5.356;2023-12-20T13:11:23;9.70;93.90
24618;DHT22;12762;51.730;5.356;2023-12-20T13:13:51;9.70;93.90
24618;DHT22;12762;51.730;5.356;2023-12-20T13:16:18;9.70;93.80
24618;DHT22;12762;51.730;5.356;2023-12-20T13:18:45;9.70;93.80
24618;DHT22;12762;51.730;5.356;2023-12-20T13:21:12;9.70;93.80
24618;DHT22;12762;51.730;5.356;2023-12-20T13:23:39;9.80;93.70
24618;DHT22;12762;51.730;5.356;2023-12-20T13:26:07;9.80;93.70
24618;DHT22;12762;51.730;5.356;2023-12-20T13:28:34;9.80;93.70
24618;DHT22;12762;51.730;5.356;2023-12-20T13:31:01;9.80;93.60
24618;DHT22;12762;51.730;5.356;2023-12-20T13:33:28;9.80;93.60
24618;DHT22;12762;51.730;5.356;2023-12-20T13:35:54;9.90;93.60
24618;DHT22;12762;51.730;5.356;2023-12-20T13:38:23;9.90;93.60
24618;DHT22;12762;51.730;5.356;2023-12-20T13:40:50;9.90;93.50
24618;DHT22;12762;51.730;5.356;2023-12-20T13:43:16;9.90;93.50
24618;DHT22;12762;51.730;5.356;2023-12-20T13:45:48;9.90;93.40
24618;DHT22;12762;51.730;5.356;2023-12-20T13:48:15;9.90;93.30
24618;DHT22;12762;51.730;5.356;2023-12-20T13:50:42;9.90;93.30
24618;DHT22;12762;51.730;5.356;2023-12-20T13:53:09;10.00;92.80
24618;DHT22;12762;51.730;5.356;2023-12-20T13:55:35;10.00;92.80
24618;DHT22;12762;51.730;5.356;2023-12-20T13:58:02;10.00;92.70
24618;DHT22;12762;51.730;5.356;2023-12-20T14:00:32;10.00;92.60
24618;DHT22;12762;51.730;5.356;2023-12-20T14:02:59;10.00;92.60
24618;DHT22;12762;51.730;5.356;2023-12-20T14:05:26;10.00;92.50
24618;DHT22;12762;51.730;5.356;2023-12-20T14:07:55;10.00;92.60
24618;DHT22;12762;51.730;5.356;2023-12-20T14:10:27;10.00;92.50
24618;DHT22;12762;51.730;5.356;2023-12-20T14:12:54;10.00;92.50
24618;DHT22;12762;51.730;5.356;2023-12-20T14:15:22;10.00;92.40
24618;DHT22;12762;51.730;5.356;2023-12-20T14:17:52;10.00;92.30
24618;DHT22;12762;51.730;5.356;2023-12-20T14:20:19;10.00;92.30
24618;DHT22;12762;51.730;5.356;2023-12-20T14:22:49;10.00;92.30
24618;DHT22;12762;51.730;5.356;2023-12-20T14:25:16;10.00;92.30
24618;DHT22;12762;51.730;5.356;2023-12-20T14:27:43;10.00;92.20
24618;DHT22;12762;51.730;5.356;2023-12-20T14:30:14;10.00;92.20
24618;DHT22;12762;51.730;5.356;2023-12-20T14:32:41;10.00;92.20
24618;DHT22;12762;51.730;5.356;2023-12-20T14:35:09;10.00;92.20
24618;DHT22;12762;51.730;5.356;2023-12-20T14:37:36;9.90;92.70
24618;DHT22;12762;51.730;5.356;2023-12-20T14:40:07;9.90;92.70
24618;DHT22;12762;51.730;5.356;2023-12-20T14:42:37;10.00;92.20
24618;DHT22;12762;51.730;5.356;2023-12-20T14:45:04;9.90;92.60
24618;DHT22;12762;51.730;5.356;2023-12-20T14:47:31;9.90;92.70
24618;DHT22;12762;51.730;5.356;2023-12-20T14:50:01;9.90;92.70
24618;DHT22;12762;51.730;5.356;2023-12-20T14:52:28;9.90;92.60
24618;DHT22;12762;51.730;5.356;2023-12-20T14:54:57;9.90;92.70
24618;DHT22;12762;51.730;5.356;2023-12-20T14:57:24;9.90;92.70
24618;DHT22;12762;51.730;5.356;2023-12-20T14:59:51;9.90;92.70
24618;DHT22;12762;51.730;5.356;2023-12-20T15:02:18;9.80;92.70
24618;DHT22;12762;51.730;5.356;2023-12-20T15:04:46;9.80;92.70
24618;DHT22;12762;51.730;5.356;2023-12-20T15:07:15;9.80;92.70
24618;DHT22;12762;51.730;5.356;2023-12-20T15:09:43;9.80;92.70
24618;DHT22;12762;51.730;5.356;2023-12-20T15:12:14;9.80;92.70
24618;DHT22;12762;51.730;5.356;2023-12-20T15:14:41;9.80;92.60
24618;DHT22;12762;51.730;5.356;2023-12-20T15:17:08;9.80;92.60
24618;DHT22;12762;51.730;5.356;2023-12-20T15:19:35;9.80;92.70
24618;DHT22;12762;51.730;5.356;2023-12-20T15:22:02;9.80;92.70
24618;DHT22;12762;51.730;5.356;2023-12-20T15:24:30;9.80;92.70
24618;DHT22;12762;51.730;5.356;2023-12-20T15:27:05;9.80;92.70
24618;DHT22;12762;51.730;5.356;2023-12-20T15:29:33;9.80;92.70
24618;DHT22;12762;51.730;5.356;2023-12-20T15:32:00;9.80;92.70
24618;DHT22;12762;51.730;5.356;2023-12-20T15:34:27;9.80;92.70
24618;DHT22;12762;51.730;5.356;2023-12-20T15:36:54;9.70;93.00
24618;DHT22;12762;51.730;5.356;2023-12-20T15:39:21;9.70;92.70
24618;DHT22;12762;51.730;5.356;2023-12-20T15:41:48;9.70;92.70
24618;DHT22;12762;51.730;5.356;2023-12-20T15:44:15;9.70;92.70
24618;DHT22;12762;51.730;5.356;2023-12-20T15:46:42;9.70;92.70
24618;DHT22;12762;51.730;5.356;2023-12-20T15:49:11;9.70;92.70
24618;DHT22;12762;51.730;5.356;2023-12-20T15:51:40;9.70;92.70